Alto, New Mexico
Current Conditions -  °F | °C
As of 12:58 PM on Thursday 23 Oct 2014 (Local Time) from KHMN Reporting Station
Clear Clear  
Wind Chill: 76°   Ceiling: Unl
Heat Index: 78°   Visibility: 10mi
Dew Point: 51°   Wind: 3mph
Humidity: 40%   Direction: 200°SSW
Pressure: 30.18"   Gusts: NA
Location:  33.39°N, 105.69°W
Report Text: KHMN 231858Z AUTO 20003KT 10SM CLR 25/10 A3018 RMK AO2 SLP166 T02460103 $
Loading
Personal Weather Stations






























Interactive Weather Map New forecast layout! Learn more

10-Day Weather Forecast

Advertisements
Track Severe Weather on mobile